sensor_id;sensor_type;location;lat;lon;timestamp;temperature;humidity
54518;DHT22;40423;53.176;6.002;2023-09-07T00:00:15;20.80;99.90
54518;DHT22;40423;53.176;6.002;2023-09-07T00:02:41;20.80;99.90
54518;DHT22;40423;53.176;6.002;2023-09-07T00:05:07;20.70;99.90
54518;DHT22;40423;53.176;6.002;2023-09-07T00:07:34;20.70;99.90
54518;DHT22;40423;53.176;6.002;2023-09-07T00:10:00;20.70;99.90
54518;DHT22;40423;53.176;6.002;2023-09-07T00:12:26;20.70;99.90
54518;DHT22;40423;53.176;6.002;2023-09-07T00:14:56;20.70;99.90
54518;DHT22;40423;53.176;6.002;2023-09-07T00:17:22;20.70;99.90
54518;DHT22;40423;53.176;6.002;2023-09-07T00:19:48;20.70;99.90
54518;DHT22;40423;53.176;6.002;2023-09-07T00:22:16;20.70;99.90
54518;DHT22;40423;53.176;6.002;2023-09-07T00:24:42;20.60;99.90
54518;DHT22;40423;53.176;6.002;2023-09-07T00:27:08;20.50;99.90
54518;DHT22;40423;53.176;6.002;2023-09-07T00:29:40;20.50;99.90
54518;DHT22;40423;53.176;6.002;2023-09-07T00:32:06;20.40;99.90
54518;DHT22;40423;53.176;6.002;2023-09-07T00:34:31;20.40;99.90
54518;DHT22;40423;53.176;6.002;2023-09-07T00:36:57;20.30;99.90
54518;DHT22;40423;53.176;6.002;2023-09-07T00:39:23;20.30;99.90
54518;DHT22;40423;53.176;6.002;2023-09-07T00:41:49;20.30;99.90
54518;DHT22;40423;53.176;6.002;2023-09-07T00:44:15;20.30;99.90
54518;DHT22;40423;53.176;6.002;2023-09-07T00:46:41;20.20;99.90
54518;DHT22;40423;53.176;6.002;2023-09-07T00:49:07;20.20;99.90
54518;DHT22;40423;53.176;6.002;2023-09-07T00:51:33;20.10;99.90
54518;DHT22;40423;53.176;6.002;2023-09-07T00:54:00;20.10;99.90
54518;DHT22;40423;53.176;6.002;2023-09-07T00:56:26;20.10;99.90
54518;DHT22;40423;53.176;6.002;2023-09-07T00:58:52;20.10;99.90
54518;DHT22;40423;53.176;6.002;2023-09-07T01:01:20;20.10;99.90
54518;DHT22;40423;53.176;6.002;2023-09-07T01:03:47;20.00;99.90
54518;DHT22;40423;53.176;6.002;2023-09-07T01:06:20;20.00;99.90
54518;DHT22;40423;53.176;6.002;2023-09-07T01:08:54;19.90;99.90
54518;DHT22;40423;53.176;6.002;2023-09-07T01:11:22;19.80;99.90
54518;DHT22;40423;53.176;6.002;2023-09-07T01:13:50;19.80;99.90
54518;DHT22;40423;53.176;6.002;2023-09-07T01:16:20;19.80;99.90
54518;DHT22;40423;53.176;6.002;2023-09-07T01:18:46;19.70;99.90
54518;DHT22;40423;53.176;6.002;2023-09-07T01:21:13;19.70;99.90
54518;DHT22;40423;53.176;6.002;2023-09-07T01:23:43;19.60;99.90
54518;DHT22;40423;53.176;6.002;2023-09-07T01:26:10;19.60;99.90
54518;DHT22;40423;53.176;6.002;2023-09-07T01:28:37;19.60;99.90
54518;DHT22;40423;53.176;6.002;2023-09-07T01:31:03;19.60;99.90
54518;DHT22;40423;53.176;6.002;2023-09-07T01:33:30;19.50;99.90
54518;DHT22;40423;53.176;6.002;2023-09-07T01:35:56;19.50;99.90
54518;DHT22;40423;53.176;6.002;2023-09-07T01:38:21;19.50;99.90
54518;DHT22;40423;53.176;6.002;2023-09-07T01:40:47;19.40;99.90
54518;DHT22;40423;53.176;6.002;2023-09-07T01:43:13;19.40;99.90
54518;DHT22;40423;53.176;6.002;2023-09-07T01:45:39;19.30;99.90
54518;DHT22;40423;53.176;6.002;2023-09-07T01:48:13;19.30;99.90
54518;DHT22;40423;53.176;6.002;2023-09-07T01:50:39;19.30;99.90
54518;DHT22;40423;53.176;6.002;2023-09-07T01:53:05;19.30;99.90
54518;DHT22;40423;53.176;6.002;2023-09-07T01:55:31;19.20;99.90
54518;DHT22;40423;53.176;6.002;2023-09-07T01:57:57;19.20;99.90
54518;DHT22;40423;53.176;6.002;2023-09-07T02:00:23;19.20;99.90
54518;DHT22;40423;53.176;6.002;2023-09-07T02:02:49;19.20;99.90
54518;DHT22;40423;53.176;6.002;2023-09-07T02:05:14;19.20;99.90
54518;DHT22;40423;53.176;6.002;2023-09-07T02:07:40;19.20;99.90
54518;DHT22;40423;53.176;6.002;2023-09-07T02:10:06;19.20;99.90
54518;DHT22;40423;53.176;6.002;2023-09-07T02:12:32;19.30;99.90
54518;DHT22;40423;53.176;6.002;2023-09-07T02:15:00;19.30;99.90
54518;DHT22;40423;53.176;6.002;2023-09-07T02:17:26;19.20;99.90
54518;DHT22;40423;53.176;6.002;2023-09-07T02:19:52;19.20;99.90
54518;DHT22;40423;53.176;6.002;2023-09-07T02:22:17;19.20;99.90
54518;DHT22;40423;53.176;6.002;2023-09-07T02:24:43;19.20;99.90
54518;DHT22;40423;53.176;6.002;2023-09-07T02:27:09;19.20;99.90
54518;DHT22;40423;53.176;6.002;2023-09-07T02:29:34;19.20;99.90
54518;DHT22;40423;53.176;6.002;2023-09-07T02:32:00;19.10;99.90
54518;DHT22;40423;53.176;6.002;2023-09-07T02:34:26;19.10;99.90
54518;DHT22;40423;53.176;6.002;2023-09-07T02:36:52;19.00;99.90
54518;DHT22;40423;53.176;6.002;2023-09-07T02:39:17;19.00;99.90
54518;DHT22;40423;53.176;6.002;2023-09-07T02:41:44;19.00;99.90
54518;DHT22;40423;53.176;6.002;2023-09-07T02:44:10;18.90;99.90
54518;DHT22;40423;53.176;6.002;2023-09-07T02:46:36;18.90;99.90
54518;DHT22;40423;53.176;6.002;2023-09-07T02:49:02;18.90;99.90
54518;DHT22;40423;53.176;6.002;2023-09-07T02:51:28;18.80;99.90
54518;DHT22;40423;53.176;6.002;2023-09-07T02:53:56;18.80;99.90
54518;DHT22;40423;53.176;6.002;2023-09-07T02:56:21;18.80;99.90
54518;DHT22;40423;53.176;6.002;2023-09-07T02:58:47;18.80;99.90
54518;DHT22;40423;53.176;6.002;2023-09-07T03:01:13;18.80;99.90
54518;DHT22;40423;53.176;6.002;2023-09-07T03:03:39;18.70;99.90
54518;DHT22;40423;53.176;6.002;2023-09-07T03:06:11;18.70;99.90
54518;DHT22;40423;53.176;6.002;2023-09-07T03:08:36;18.70;99.90
54518;DHT22;40423;53.176;6.002;2023-09-07T03:11:04;18.70;99.90
54518;DHT22;40423;53.176;6.002;2023-09-07T03:13:30;18.60;99.90
54518;DHT22;40423;53.176;6.002;2023-09-07T03:15:56;18.50;99.90
54518;DHT22;40423;53.176;6.002;2023-09-07T03:18:22;18.50;99.90
54518;DHT22;40423;53.176;6.002;2023-09-07T03:20:49;18.50;99.90
54518;DHT22;40423;53.176;6.002;2023-09-07T03:23:14;18.40;99.90
54518;DHT22;40423;53.176;6.002;2023-09-07T03:25:40;18.40;99.90
54518;DHT22;40423;53.176;6.002;2023-09-07T03:28:06;18.40;99.90
54518;DHT22;40423;53.176;6.002;2023-09-07T03:30:32;18.30;99.90
54518;DHT22;40423;53.176;6.002;2023-09-07T03:32:58;18.30;99.90
54518;DHT22;40423;53.176;6.002;2023-09-07T03:35:24;18.20;99.90
54518;DHT22;40423;53.176;6.002;2023-09-07T03:37:50;18.20;99.90
54518;DHT22;40423;53.176;6.002;2023-09-07T03:40:15;18.20;99.90
54518;DHT22;40423;53.176;6.002;2023-09-07T03:42:41;18.10;99.90
54518;DHT22;40423;53.176;6.002;2023-09-07T03:45:09;18.10;99.90
54518;DHT22;40423;53.176;6.002;2023-09-07T03:47:35;18.10;99.90
54518;DHT22;40423;53.176;6.002;2023-09-07T03:50:00;18.10;99.90
54518;DHT22;40423;53.176;6.002;2023-09-07T03:52:26;18.10;99.90
54518;DHT22;40423;53.176;6.002;2023-09-07T03:54:56;18.10;99.90
54518;DHT22;40423;53.176;6.002;2023-09-07T03:57:23;18.10;99.90
54518;DHT22;40423;53.176;6.002;2023-09-07T03:59:48;18.10;99.90
54518;DHT22;40423;53.176;6.002;2023-09-07T04:02:15;18.00;99.90
54518;DHT22;40423;53.176;6.002;2023-09-07T04:04:41;18.10;99.90
54518;DHT22;40423;53.176;6.002;2023-09-07T04:07:06;18.10;99.90
54518;DHT22;40423;53.176;6.002;2023-09-07T04:09:32;18.10;99.90
54518;DHT22;40423;53.176;6.002;2023-09-07T04:11:58;18.10;99.90
54518;DHT22;40423;53.176;6.002;2023-09-07T04:14:24;18.10;99.90
54518;DHT22;40423;53.176;6.002;2023-09-07T04:16:49;18.10;99.90
54518;DHT22;40423;53.176;6.002;2023-09-07T04:19:16;18.10;99.90
54518;DHT22;40423;53.176;6.002;2023-09-07T04:21:42;18.10;99.90
54518;DHT22;40423;53.176;6.002;2023-09-07T04:24:08;18.10;99.90
54518;DHT22;40423;53.176;6.002;2023-09-07T04:26:34;18.10;99.90
54518;DHT22;40423;53.176;6.002;2023-09-07T04:29:00;18.10;99.90
54518;DHT22;40423;53.176;6.002;2023-09-07T04:31:25;18.00;99.90
54518;DHT22;40423;53.176;6.002;2023-09-07T04:33:53;18.00;99.90
54518;DHT22;40423;53.176;6.002;2023-09-07T04:36:19;18.00;99.90
54518;DHT22;40423;53.176;6.002;2023-09-07T04:38:45;18.00;99.90
54518;DHT22;40423;53.176;6.002;2023-09-07T04:41:14;18.00;99.90
54518;DHT22;40423;53.176;6.002;2023-09-07T04:43:41;18.00;99.90
54518;DHT22;40423;53.176;6.002;2023-09-07T04:46:11;18.00;99.90
54518;DHT22;40423;53.176;6.002;2023-09-07T04:48:37;18.00;99.90
54518;DHT22;40423;53.176;6.002;2023-09-07T04:51:04;18.00;99.90
54518;DHT22;40423;53.176;6.002;2023-09-07T04:53:32;18.00;99.90
54518;DHT22;40423;53.176;6.002;2023-09-07T04:55:58;18.00;99.90
54518;DHT22;40423;53.176;6.002;2023-09-07T04:58:25;18.00;99.90
54518;DHT22;40423;53.176;6.002;2023-09-07T05:00:51;17.90;99.90
54518;DHT22;40423;53.176;6.002;2023-09-07T05:03:16;17.90;99.90
54518;DHT22;40423;53.176;6.002;2023-09-07T05:05:42;18.00;99.90
54518;DHT22;40423;53.176;6.002;2023-09-07T05:08:09;17.90;99.90
54518;DHT22;40423;53.176;6.002;2023-09-07T05:10:35;18.00;99.90
54518;DHT22;40423;53.176;6.002;2023-09-07T05:13:01;18.00;99.90
54518;DHT22;40423;53.176;6.002;2023-09-07T05:15:27;17.90;99.90
54518;DHT22;40423;53.176;6.002;2023-09-07T05:17:53;17.90;99.90
54518;DHT22;40423;53.176;6.002;2023-09-07T05:20:20;17.90;99.90
54518;DHT22;40423;53.176;6.002;2023-09-07T05:22:45;18.00;99.90
54518;DHT22;40423;53.176;6.002;2023-09-07T05:25:11;18.00;99.90
54518;DHT22;40423;53.176;6.002;2023-09-07T05:27:37;17.90;99.90
54518;DHT22;40423;53.176;6.002;2023-09-07T05:30:04;17.90;99.90
54518;DHT22;40423;53.176;6.002;2023-09-07T05:32:30;17.90;99.90
54518;DHT22;40423;53.176;6.002;2023-09-07T05:34:56;18.00;99.90
54518;DHT22;40423;53.176;6.002;2023-09-07T05:37:22;18.00;99.90
54518;DHT22;40423;53.176;6.002;2023-09-07T05:39:47;18.00;99.90
54518;DHT22;40423;53.176;6.002;2023-09-07T05:42:14;18.10;99.90
54518;DHT22;40423;53.176;6.002;2023-09-07T05:44:40;18.10;99.90
54518;DHT22;40423;53.176;6.002;2023-09-07T05:47:06;18.10;99.90
54518;DHT22;40423;53.176;6.002;2023-09-07T05:49:31;18.20;99.90
54518;DHT22;40423;53.176;6.002;2023-09-07T05:51:57;18.20;99.90
54518;DHT22;40423;53.176;6.002;2023-09-07T05:54:23;18.20;99.90
54518;DHT22;40423;53.176;6.002;2023-09-07T05:56:49;18.20;99.90
54518;DHT22;40423;53.176;6.002;2023-09-07T05:59:14;18.20;99.90
54518;DHT22;40423;53.176;6.002;2023-09-07T06:01:40;18.30;99.90
54518;DHT22;40423;53.176;6.002;2023-09-07T06:04:07;18.30;99.90
54518;DHT22;40423;53.176;6.002;2023-09-07T06:06:33;18.40;99.90
54518;DHT22;40423;53.176;6.002;2023-09-07T06:08:59;18.50;99.90
54518;DHT22;40423;53.176;6.002;2023-09-07T06:11:25;18.50;99.90
54518;DHT22;40423;53.176;6.002;2023-09-07T06:13:51;18.60;99.90
54518;DHT22;40423;53.176;6.002;2023-09-07T06:16:20;18.60;99.90
54518;DHT22;40423;53.176;6.002;2023-09-07T06:18:45;18.70;99.90
54518;DHT22;40423;53.176;6.002;2023-09-07T06:21:11;18.70;99.90
54518;DHT22;40423;53.176;6.002;2023-09-07T06:23:37;18.80;99.90
54518;DHT22;40423;53.176;6.002;2023-09-07T06:26:03;18.90;99.90
54518;DHT22;40423;53.176;6.002;2023-09-07T06:28:28;18.90;99.90
54518;DHT22;40423;53.176;6.002;2023-09-07T06:30:54;18.90;99.90
54518;DHT22;40423;53.176;6.002;2023-09-07T06:33:20;19.00;99.90
54518;DHT22;40423;53.176;6.002;2023-09-07T06:35:45;19.00;99.90
54518;DHT22;40423;53.176;6.002;2023-09-07T06:38:11;19.10;99.90
54518;DHT22;40423;53.176;6.002;2023-09-07T06:40:37;19.20;99.90
54518;DHT22;40423;53.176;6.002;2023-09-07T06:43:03;19.20;99.90
54518;DHT22;40423;53.176;6.002;2023-09-07T06:45:34;19.30;99.90
54518;DHT22;40423;53.176;6.002;2023-09-07T06:48:02;19.40;99.90
54518;DHT22;40423;53.176;6.002;2023-09-07T06:50:27;19.50;99.90
54518;DHT22;40423;53.176;6.002;2023-09-07T06:52:53;19.60;99.90
54518;DHT22;40423;53.176;6.002;2023-09-07T06:55:19;19.70;99.90
54518;DHT22;40423;53.176;6.002;2023-09-07T06:57:45;19.80;99.90
54518;DHT22;40423;53.176;6.002;2023-09-07T07:00:11;19.90;99.90
54518;DHT22;40423;53.176;6.002;2023-09-07T07:02:37;20.00;99.90
54518;DHT22;40423;53.176;6.002;2023-09-07T07:05:04;20.10;99.90
54518;DHT22;40423;53.176;6.002;2023-09-07T07:07:30;20.20;99.90
54518;DHT22;40423;53.176;6.002;2023-09-07T07:09:56;20.30;99.90
54518;DHT22;40423;53.176;6.002;2023-09-07T07:12:22;20.40;99.90
54518;DHT22;40423;53.176;6.002;2023-09-07T07:14:47;20.60;99.90
54518;DHT22;40423;53.176;6.002;2023-09-07T07:17:13;20.70;99.90
54518;DHT22;40423;53.176;6.002;2023-09-07T07:19:39;20.80;99.90
54518;DHT22;40423;53.176;6.002;2023-09-07T07:22:05;20.90;99.90
54518;DHT22;40423;53.176;6.002;2023-09-07T07:24:30;21.00;99.90
54518;DHT22;40423;53.176;6.002;2023-09-07T07:26:56;21.10;99.90
54518;DHT22;40423;53.176;6.002;2023-09-07T07:29:22;21.20;99.90
54518;DHT22;40423;53.176;6.002;2023-09-07T07:31:48;21.30;99.90
54518;DHT22;40423;53.176;6.002;2023-09-07T07:34:13;21.50;99.90
54518;DHT22;40423;53.176;6.002;2023-09-07T07:36:39;21.50;99.90
54518;DHT22;40423;53.176;6.002;2023-09-07T07:39:05;21.60;99.90
54518;DHT22;40423;53.176;6.002;2023-09-07T07:41:34;21.80;99.90
54518;DHT22;40423;53.176;6.002;2023-09-07T07:44:01;21.90;99.90
54518;DHT22;40423;53.176;6.002;2023-09-07T07:46:26;22.00;99.90
54518;DHT22;40423;53.176;6.002;2023-09-07T07:48:52;22.20;99.90
54518;DHT22;40423;53.176;6.002;2023-09-07T07:51:18;22.20;99.90
54518;DHT22;40423;53.176;6.002;2023-09-07T07:53:43;22.30;99.90
54518;DHT22;40423;53.176;6.002;2023-09-07T07:56:16;22.40;99.90
54518;DHT22;40423;53.176;6.002;2023-09-07T07:58:42;22.40;99.90
54518;DHT22;40423;53.176;6.002;2023-09-07T08:01:18;22.50;99.90
54518;DHT22;40423;53.176;6.002;2023-09-07T08:03:44;22.50;99.90
54518;DHT22;40423;53.176;6.002;2023-09-07T08:06:10;22.60;99.90
54518;DHT22;40423;53.176;6.002;2023-09-07T08:08:37;22.60;99.90
54518;DHT22;40423;53.176;6.002;2023-09-07T08:11:04;22.60;99.90
54518;DHT22;40423;53.176;6.002;2023-09-07T08:13:34;22.70;99.90
54518;DHT22;40423;53.176;6.002;2023-09-07T08:16:01;22.80;99.90
54518;DHT22;40423;53.176;6.002;2023-09-07T08:18:27;22.80;99.90
54518;DHT22;40423;53.176;6.002;2023-09-07T08:20:53;22.80;99.90
54518;DHT22;40423;53.176;6.002;2023-09-07T08:23:21;22.90;99.90
54518;DHT22;40423;53.176;6.002;2023-09-07T08:25:47;23.00;99.90
54518;DHT22;40423;53.176;6.002;2023-09-07T08:28:13;23.00;99.90
54518;DHT22;40423;53.176;6.002;2023-09-07T08:30:41;23.20;99.90
54518;DHT22;40423;53.176;6.002;2023-09-07T08:33:07;23.30;99.90
54518;DHT22;40423;53.176;6.002;2023-09-07T08:35:34;23.40;99.90
54518;DHT22;40423;53.176;6.002;2023-09-07T08:38:03;23.50;99.90
54518;DHT22;40423;53.176;6.002;2023-09-07T08:40:34;23.60;99.90
54518;DHT22;40423;53.176;6.002;2023-09-07T08:43:04;23.70;99.90
54518;DHT22;40423;53.176;6.002;2023-09-07T08:45:31;23.90;99.90
54518;DHT22;40423;53.176;6.002;2023-09-07T08:48:02;24.00;99.90
54518;DHT22;40423;53.176;6.002;2023-09-07T08:50:30;24.10;99.90
54518;DHT22;40423;53.176;6.002;2023-09-07T08:52:56;24.20;99.90
54518;DHT22;40423;53.176;6.002;2023-09-07T08:55:25;24.30;99.90
54518;DHT22;40423;53.176;6.002;2023-09-07T08:57:51;24.40;99.90
54518;DHT22;40423;53.176;6.002;2023-09-07T09:00:20;24.40;99.90
54518;DHT22;40423;53.176;6.002;2023-09-07T09:02:49;24.50;99.90
54518;DHT22;40423;53.176;6.002;2023-09-07T09:05:15;24.60;99.90
54518;DHT22;40423;53.176;6.002;2023-09-07T09:07:43;24.70;99.90
54518;DHT22;40423;53.176;6.002;2023-09-07T09:10:10;24.80;99.90
54518;DHT22;40423;53.176;6.002;2023-09-07T09:12:35;25.00;99.60
54518;DHT22;40423;53.176;6.002;2023-09-07T09:15:10;25.10;99.60
54518;DHT22;40423;53.176;6.002;2023-09-07T09:17:35;25.10;99.10
54518;DHT22;40423;53.176;6.002;2023-09-07T09:20:01;25.20;99.30
54518;DHT22;40423;53.176;6.002;2023-09-07T09:22:31;25.20;99.10
54518;DHT22;40423;53.176;6.002;2023-09-07T09:24:56;25.40;99.00
54518;DHT22;40423;53.176;6.002;2023-09-07T09:27:22;25.40;98.80
54518;DHT22;40423;53.176;6.002;2023-09-07T09:33:31;25.70;99.10
54518;DHT22;40423;53.176;6.002;2023-09-07T09:35:57;25.80;98.70
54518;DHT22;40423;53.176;6.002;2023-09-07T09:38:23;25.90;98.30
54518;DHT22;40423;53.176;6.002;2023-09-07T09:40:49;26.10;98.70
54518;DHT22;40423;53.176;6.002;2023-09-07T09:43:15;26.00;98.50
54518;DHT22;40423;53.176;6.002;2023-09-07T09:45:41;26.10;97.70
54518;DHT22;40423;53.176;6.002;2023-09-07T09:48:07;26.20;98.00
54518;DHT22;40423;53.176;6.002;2023-09-07T09:50:34;26.30;98.00
54518;DHT22;40423;53.176;6.002;2023-09-07T09:53:07;26.40;97.90
54518;DHT22;40423;53.176;6.002;2023-09-07T09:55:36;26.50;97.80
54518;DHT22;40423;53.176;6.002;2023-09-07T09:58:02;26.50;97.80
54518;DHT22;40423;53.176;6.002;2023-09-07T10:00:28;26.60;97.70
54518;DHT22;40423;53.176;6.002;2023-09-07T10:03:03;26.60;97.10
54518;DHT22;40423;53.176;6.002;2023-09-07T10:05:31;26.70;96.70
54518;DHT22;40423;53.176;6.002;2023-09-07T10:08:04;26.80;96.70
54518;DHT22;40423;53.176;6.002;2023-09-07T10:10:35;26.80;96.70
54518;DHT22;40423;53.176;6.002;2023-09-07T10:13:02;26.90;96.90
54518;DHT22;40423;53.176;6.002;2023-09-07T10:15:28;27.00;97.20
54518;DHT22;40423;53.176;6.002;2023-09-07T10:18:13;27.10;96.70
54518;DHT22;40423;53.176;6.002;2023-09-07T10:23:14;27.30;96.20
54518;DHT22;40423;53.176;6.002;2023-09-07T10:25:40;27.40;96.20
54518;DHT22;40423;53.176;6.002;2023-09-07T10:28:20;27.50;96.20
54518;DHT22;40423;53.176;6.002;2023-09-07T10:31:07;27.60;95.80
54518;DHT22;40423;53.176;6.002;2023-09-07T10:33:36;27.60;95.60
54518;DHT22;40423;53.176;6.002;2023-09-07T10:36:03;27.60;95.60
54518;DHT22;40423;53.176;6.002;2023-09-07T10:38:30;27.60;95.10
54518;DHT22;40423;53.176;6.002;2023-09-07T10:40:58;27.70;95.40
54518;DHT22;40423;53.176;6.002;2023-09-07T10:43:33;27.80;95.60
54518;DHT22;40423;53.176;6.002;2023-09-07T10:46:00;27.90;95.70
54518;DHT22;40423;53.176;6.002;2023-09-07T10:48:29;28.00;95.30
54518;DHT22;40423;53.176;6.002;2023-09-07T10:50:55;28.10;94.60
54518;DHT22;40423;53.176;6.002;2023-09-07T10:53:30;28.10;95.00
54518;DHT22;40423;53.176;6.002;2023-09-07T10:56:04;28.20;95.40
54518;DHT22;40423;53.176;6.002;2023-09-07T10:58:34;28.30;94.80
54518;DHT22;40423;53.176;6.002;2023-09-07T11:01:00;28.40;94.70
54518;DHT22;40423;53.176;6.002;2023-09-07T11:03:27;28.50;94.80
54518;DHT22;40423;53.176;6.002;2023-09-07T11:06:11;28.70;95.10
54518;DHT22;40423;53.176;6.002;2023-09-07T11:08:37;28.90;94.80
54518;DHT22;40423;53.176;6.002;2023-09-07T11:11:03;29.10;94.50
54518;DHT22;40423;53.176;6.002;2023-09-07T11:13:30;29.10;93.40
54518;DHT22;40423;53.176;6.002;2023-09-07T11:15:57;29.00;93.70
54518;DHT22;40423;53.176;6.002;2023-09-07T11:18:23;29.10;93.90
54518;DHT22;40423;53.176;6.002;2023-09-07T11:20:51;29.20;93.90
54518;DHT22;40423;53.176;6.002;2023-09-07T11:23:18;29.30;93.70
54518;DHT22;40423;53.176;6.002;2023-09-07T11:25:46;29.30;92.90
54518;DHT22;40423;53.176;6.002;2023-09-07T11:28:12;29.20;92.50
54518;DHT22;40423;53.176;6.002;2023-09-07T11:30:51;29.20;92.80
54518;DHT22;40423;53.176;6.002;2023-09-07T11:33:18;29.30;91.80
54518;DHT22;40423;53.176;6.002;2023-09-07T11:35:44;29.30;92.20
54518;DHT22;40423;53.176;6.002;2023-09-07T11:38:13;29.40;92.00
54518;DHT22;40423;53.176;6.002;2023-09-07T11:40:39;29.40;91.30
54518;DHT22;40423;53.176;6.002;2023-09-07T11:43:05;29.40;92.00
54518;DHT22;40423;53.176;6.002;2023-09-07T11:45:30;29.50;92.20
54518;DHT22;40423;53.176;6.002;2023-09-07T11:47:57;29.60;92.00
54518;DHT22;40423;53.176;6.002;2023-09-07T11:50:24;29.60;91.50
54518;DHT22;40423;53.176;6.002;2023-09-07T11:52:50;29.70;91.90
54518;DHT22;40423;53.176;6.002;2023-09-07T11:55:16;29.80;91.90
54518;DHT22;40423;53.176;6.002;2023-09-07T11:57:42;29.80;91.90
54518;DHT22;40423;53.176;6.002;2023-09-07T12:00:08;29.90;91.90
54518;DHT22;40423;53.176;6.002;2023-09-07T12:02:40;29.90;91.10
54518;DHT22;40423;53.176;6.002;2023-09-07T12:05:06;29.90;91.10
54518;DHT22;40423;53.176;6.002;2023-09-07T12:07:36;29.90;91.40
54518;DHT22;40423;53.176;6.002;2023-09-07T12:10:02;30.00;91.50
54518;DHT22;40423;53.176;6.002;2023-09-07T12:12:28;30.20;91.50
54518;DHT22;40423;53.176;6.002;2023-09-07T12:14:54;30.20;91.80
54518;DHT22;40423;53.176;6.002;2023-09-07T12:17:22;30.20;91.40
54518;DHT22;40423;53.176;6.002;2023-09-07T12:19:49;30.20;90.80
54518;DHT22;40423;53.176;6.002;2023-09-07T12:22:15;30.10;90.80
54518;DHT22;40423;53.176;6.002;2023-09-07T12:24:41;30.10;91.20
54518;DHT22;40423;53.176;6.002;2023-09-07T12:27:06;30.20;90.90
54518;DHT22;40423;53.176;6.002;2023-09-07T12:29:33;30.20;90.80
54518;DHT22;40423;53.176;6.002;2023-09-07T12:31:58;30.30;90.50
54518;DHT22;40423;53.176;6.002;2023-09-07T12:34:24;30.40;90.00
54518;DHT22;40423;53.176;6.002;2023-09-07T12:36:50;30.30;90.60
54518;DHT22;40423;53.176;6.002;2023-09-07T12:39:16;30.40;90.60
54518;DHT22;40423;53.176;6.002;2023-09-07T12:41:43;30.30;90.70
54518;DHT22;40423;53.176;6.002;2023-09-07T12:44:08;30.40;90.70
54518;DHT22;40423;53.176;6.002;2023-09-07T12:46:34;30.40;90.90
54518;DHT22;40423;53.176;6.002;2023-09-07T12:49:00;30.40;90.80
54518;DHT22;40423;53.176;6.002;2023-09-07T12:51:26;30.50;90.70
54518;DHT22;40423;53.176;6.002;2023-09-07T12:53:52;30.60;90.70
54518;DHT22;40423;53.176;6.002;2023-09-07T12:56:18;30.70;90.80
54518;DHT22;40423;53.176;6.002;2023-09-07T12:58:44;30.80;90.60
54518;DHT22;40423;53.176;6.002;2023-09-07T13:01:10;30.80;90.70
54518;DHT22;40423;53.176;6.002;2023-09-07T13:03:39;30.80;90.40
54518;DHT22;40423;53.176;6.002;2023-09-07T13:06:05;30.80;89.60
54518;DHT22;40423;53.176;6.002;2023-09-07T13:08:30;30.80;89.90
54518;DHT22;40423;53.176;6.002;2023-09-07T13:10:56;30.70;90.00
54518;DHT22;40423;53.176;6.002;2023-09-07T13:13:25;30.70;89.20
54518;DHT22;40423;53.176;6.002;2023-09-07T13:15:57;30.70;88.50
54518;DHT22;40423;53.176;6.002;2023-09-07T13:18:23;30.60;88.60
54518;DHT22;40423;53.176;6.002;2023-09-07T13:20:48;30.80;89.10
54518;DHT22;40423;53.176;6.002;2023-09-07T13:23:16;30.80;87.40
54518;DHT22;40423;53.176;6.002;2023-09-07T13:25:42;30.80;87.60
54518;DHT22;40423;53.176;6.002;2023-09-07T13:28:07;30.70;87.60
54518;DHT22;40423;53.176;6.002;2023-09-07T13:30:33;30.80;87.40
54518;DHT22;40423;53.176;6.002;2023-09-07T13:32:59;30.90;87.60
54518;DHT22;40423;53.176;6.002;2023-09-07T13:35:25;30.90;86.60
54518;DHT22;40423;53.176;6.002;2023-09-07T13:37:51;30.90;85.50
54518;DHT22;40423;53.176;6.002;2023-09-07T13:40:18;30.80;84.40
54518;DHT22;40423;53.176;6.002;2023-09-07T13:42:47;30.80;84.40
54518;DHT22;40423;53.176;6.002;2023-09-07T13:45:13;30.70;84.20
54518;DHT22;40423;53.176;6.002;2023-09-07T13:47:39;30.60;84.00
54518;DHT22;40423;53.176;6.002;2023-09-07T13:50:05;30.70;84.00
54518;DHT22;40423;53.176;6.002;2023-09-07T13:52:31;30.70;84.40
54518;DHT22;40423;53.176;6.002;2023-09-07T13:54:57;30.80;84.50
54518;DHT22;40423;53.176;6.002;2023-09-07T13:57:23;30.70;83.40
54518;DHT22;40423;53.176;6.002;2023-09-07T13:59:49;30.80;83.60
54518;DHT22;40423;53.176;6.002;2023-09-07T14:02:15;30.70;83.30
54518;DHT22;40423;53.176;6.002;2023-09-07T14:04:40;30.60;83.20
54518;DHT22;40423;53.176;6.002;2023-09-07T14:07:06;30.50;83.70
54518;DHT22;40423;53.176;6.002;2023-09-07T14:09:32;30.50;83.10
54518;DHT22;40423;53.176;6.002;2023-09-07T14:11:59;30.50;83.30
54518;DHT22;40423;53.176;6.002;2023-09-07T14:14:24;30.40;83.00
54518;DHT22;40423;53.176;6.002;2023-09-07T14:16:50;30.30;83.60
54518;DHT22;40423;53.176;6.002;2023-09-07T14:19:20;30.20;83.60
54518;DHT22;40423;53.176;6.002;2023-09-07T14:21:46;30.20;81.90
54518;DHT22;40423;53.176;6.002;2023-09-07T14:24:12;30.10;83.50
54518;DHT22;40423;53.176;6.002;2023-09-07T14:26:37;30.00;83.20
54518;DHT22;40423;53.176;6.002;2023-09-07T14:29:03;29.90;82.80
54518;DHT22;40423;53.176;6.002;2023-09-07T14:31:30;29.80;83.20
54518;DHT22;40423;53.176;6.002;2023-09-07T14:33:56;29.70;84.00
54518;DHT22;40423;53.176;6.002;2023-09-07T14:36:21;29.70;84.80
54518;DHT22;40423;53.176;6.002;2023-09-07T14:38:47;29.60;84.60
54518;DHT22;40423;53.176;6.002;2023-09-07T14:41:13;29.50;85.30
54518;DHT22;40423;53.176;6.002;2023-09-07T14:43:45;29.50;85.90
54518;DHT22;40423;53.176;6.002;2023-09-07T14:46:11;29.40;86.00
54518;DHT22;40423;53.176;6.002;2023-09-07T14:48:37;29.40;86.20
54518;DHT22;40423;53.176;6.002;2023-09-07T14:51:03;29.30;86.30
54518;DHT22;40423;53.176;6.002;2023-09-07T14:53:29;29.30;86.30
54518;DHT22;40423;53.176;6.002;2023-09-07T14:55:55;29.20;86.20
54518;DHT22;40423;53.176;6.002;2023-09-07T14:58:21;29.10;85.80
54518;DHT22;40423;53.176;6.002;2023-09-07T15:00:47;29.00;86.00
54518;DHT22;40423;53.176;6.002;2023-09-07T15:03:13;29.00;86.80
54518;DHT22;40423;53.176;6.002;2023-09-07T15:05:38;29.00;87.30
54518;DHT22;40423;53.176;6.002;2023-09-07T15:08:04;29.00;87.30
54518;DHT22;40423;53.176;6.002;2023-09-07T15:10:32;28.90;86.90
54518;DHT22;40423;53.176;6.002;2023-09-07T15:13:00;28.90;86.80
54518;DHT22;40423;53.176;6.002;2023-09-07T15:15:29;28.80;87.40
54518;DHT22;40423;53.176;6.002;2023-09-07T15:17:57;28.80;87.70
54518;DHT22;40423;53.176;6.002;2023-09-07T15:20:22;28.80;88.00
54518;DHT22;40423;53.176;6.002;2023-09-07T15:22:48;28.80;88.10
54518;DHT22;40423;53.176;6.002;2023-09-07T15:25:14;28.60;88.20
54518;DHT22;40423;53.176;6.002;2023-09-07T15:27:39;28.70;88.40
54518;DHT22;40423;53.176;6.002;2023-09-07T15:30:09;28.70;89.10
54518;DHT22;40423;53.176;6.002;2023-09-07T15:32:35;28.60;89.80